createdAt,value
2022-07-29T00:00:15.111Z,47
2022-07-29T00:05:15.109Z,47
2022-07-29T00:10:15.098Z,47
2022-07-29T00:15:15.115Z,48
2022-07-29T00:20:15.104Z,48
2022-07-29T00:25:15.117Z,48
2022-07-29T00:30:15.113Z,47
2022-07-29T00:35:15.107Z,47
2022-07-29T00:40:15.111Z,47
2022-07-29T00:45:15.109Z,46
2022-07-29T00:50:15.098Z,46
2022-07-29T00:55:15.109Z,47
2022-07-29T01:00:15.105Z,47
2022-07-29T01:05:15.100Z,48
2022-07-29T01:10:15.114Z,48
2022-07-29T01:15:15.098Z,48
2022-07-29T01:20:15.108Z,49
2022-07-29T01:25:15.088Z,49
2022-07-29T01:30:15.640Z,49
2022-07-29T01:35:15.097Z,49
2022-07-29T01:40:15.083Z,49
2022-07-29T01:45:15.094Z,50
2022-07-29T01:50:15.096Z,49
2022-07-29T01:55:15.096Z,49
2022-07-29T02:00:15.095Z,49
2022-07-29T02:05:15.118Z,49
2022-07-29T02:10:15.093Z,49
2022-07-29T02:15:15.110Z,49
2022-07-29T02:20:15.108Z,49
2022-07-29T02:25:15.098Z,50
2022-07-29T02:30:15.093Z,50
2022-07-29T02:35:15.112Z,50
2022-07-29T02:40:15.088Z,50
2022-07-29T02:45:15.101Z,51
2022-07-29T02:50:15.108Z,51
2022-07-29T02:55:15.105Z,51
2022-07-29T03:00:15.100Z,51
2022-07-29T03:05:15.137Z,51
2022-07-29T03:10:15.108Z,52
2022-07-29T03:15:15.112Z,51
2022-07-29T03:20:15.100Z,51
2022-07-29T03:25:15.109Z,51
2022-07-29T03:30:18.485Z,51
2022-07-29T03:35:15.104Z,51
2022-07-29T03:40:15.100Z,51
2022-07-29T03:45:15.106Z,51
2022-07-29T03:50:15.096Z,52
2022-07-29T03:55:15.108Z,52
2022-07-29T04:00:15.101Z,52
2022-07-29T04:05:15.107Z,52
2022-07-29T04:10:15.096Z,52
2022-07-29T04:15:15.108Z,52
2022-07-29T04:20:15.100Z,52
2022-07-29T04:25:15.154Z,52
2022-07-29T04:30:15.147Z,52
2022-07-29T04:35:15.104Z,52
2022-07-29T04:40:15.151Z,52
2022-07-29T04:45:15.117Z,52
2022-07-29T04:50:15.103Z,52
2022-07-29T04:55:15.098Z,52
2022-07-29T05:00:15.113Z,52
2022-07-29T05:05:15.170Z,52
2022-07-29T05:10:15.107Z,52
2022-07-29T05:15:15.101Z,52
2022-07-29T05:20:15.105Z,53
2022-07-29T05:25:15.096Z,53
2022-07-29T05:30:15.094Z,53
2022-07-29T05:35:15.119Z,54
2022-07-29T05:40:15.095Z,54
2022-07-29T05:45:15.125Z,54
2022-07-29T05:50:15.113Z,54
2022-07-29T05:55:15.113Z,54
2022-07-29T06:00:15.115Z,53
2022-07-29T06:05:16.342Z,53
2022-07-29T06:10:15.104Z,51
2022-07-29T06:15:15.108Z,51
2022-07-29T06:20:15.357Z,50
2022-07-29T06:25:15.098Z,50
2022-07-29T06:30:15.101Z,50
2022-07-29T06:35:39.597Z,49
2022-07-29T06:40:15.102Z,49
2022-07-29T06:45:15.095Z,48
2022-07-29T06:50:15.091Z,48
2022-07-29T06:55:25.213Z,48
2022-07-29T07:00:15.106Z,48
2022-07-29T07:05:15.105Z,47
2022-07-29T07:10:15.098Z,47
2022-07-29T07:15:15.112Z,47
2022-07-29T07:20:15.115Z,47
2022-07-29T07:25:15.099Z,47
2022-07-29T07:30:15.108Z,47
2022-07-29T07:35:15.101Z,46
2022-07-29T07:40:18.715Z,46
2022-07-29T07:45:15.881Z,45
2022-07-29T07:50:18.825Z,45
2022-07-29T07:55:15.107Z,45
2022-07-29T08:00:15.138Z,44
2022-07-29T08:05:15.118Z,44
2022-07-29T08:10:15.111Z,44
2022-07-29T08:15:15.122Z,44
2022-07-29T08:20:15.112Z,43
2022-07-29T08:25:15.101Z,43
2022-07-29T08:30:15.103Z,44
2022-07-29T08:35:15.102Z,44
2022-07-29T08:40:15.119Z,43
2022-07-29T08:45:15.113Z,43
2022-07-29T08:50:15.099Z,43
2022-07-29T08:55:15.123Z,44
2022-07-29T09:00:15.095Z,44
2022-07-29T09:05:15.122Z,43
2022-07-29T09:10:15.110Z,43
2022-07-29T09:15:15.113Z,44
2022-07-29T09:20:15.109Z,45
2022-07-29T09:25:15.113Z,45
2022-07-29T09:30:15.111Z,45
2022-07-29T09:35:15.106Z,45
2022-07-29T09:40:15.126Z,45
2022-07-29T09:45:15.098Z,45
2022-07-29T09:50:15.151Z,44
2022-07-29T09:55:18.312Z,44
2022-07-29T10:00:15.191Z,45
2022-07-29T10:05:15.107Z,46
2022-07-29T10:10:15.199Z,46
2022-07-29T10:15:15.111Z,49
2022-07-29T10:20:16.512Z,52
2022-07-29T10:25:15.118Z,53
2022-07-29T10:30:15.131Z,55
2022-07-29T10:35:15.122Z,54
2022-07-29T10:40:15.151Z,55
2022-07-29T10:45:15.136Z,60
2022-07-29T10:50:17.341Z,58
2022-07-29T10:55:15.116Z,58
2022-07-29T11:00:16.793Z,55
2022-07-29T11:05:15.096Z,55
2022-07-29T11:10:15.104Z,55
2022-07-29T11:15:15.109Z,55
2022-07-29T11:20:15.099Z,54
2022-07-29T11:25:16.681Z,53
2022-07-29T11:30:15.097Z,51
2022-07-29T11:35:16.877Z,50
2022-07-29T11:40:15.142Z,50
2022-07-29T11:45:42.299Z,49
2022-07-29T11:50:15.102Z,49
2022-07-29T11:55:15.106Z,49
2022-07-29T12:00:18.625Z,50
2022-07-29T12:05:18.095Z,48
2022-07-29T12:10:19.406Z,48
2022-07-29T12:15:15.111Z,48
2022-07-29T12:20:15.112Z,48
2022-07-29T12:25:32.761Z,47
2022-07-29T12:30:17.444Z,47
2022-07-29T12:35:15.104Z,46
2022-07-29T12:40:15.100Z,46
2022-07-29T12:45:15.109Z,45
2022-07-29T12:50:15.099Z,45
2022-07-29T12:55:15.107Z,45
2022-07-29T13:00:15.108Z,46
2022-07-29T13:05:15.113Z,45
2022-07-29T13:10:15.121Z,45
2022-07-29T13:15:15.110Z,44
2022-07-29T13:20:15.103Z,45
2022-07-29T13:25:15.108Z,45
2022-07-29T13:30:15.096Z,45
2022-07-29T13:35:15.113Z,46
2022-07-29T13:40:15.104Z,45
2022-07-29T13:45:15.118Z,47
2022-07-29T13:50:15.088Z,51
2022-07-29T13:55:15.097Z,56
2022-07-29T14:00:15.089Z,59
2022-07-29T14:05:15.110Z,66
2022-07-29T14:10:18.439Z,70
2022-07-29T14:15:15.112Z,71
2022-07-29T14:20:15.099Z,71
2022-07-29T14:25:15.748Z,73
2022-07-29T14:30:15.098Z,74
2022-07-29T14:35:15.121Z,73
2022-07-29T14:40:15.104Z,72
2022-07-29T14:45:15.098Z,73
2022-07-29T14:50:15.100Z,70
2022-07-29T14:55:16.357Z,71
2022-07-29T15:00:15.119Z,72
2022-07-29T15:05:15.117Z,71
2022-07-29T15:10:15.590Z,72
2022-07-29T15:15:15.102Z,72
2022-07-29T15:20:15.106Z,72
2022-07-29T15:25:15.104Z,70
2022-07-29T15:30:30.961Z,69
2022-07-29T15:35:15.110Z,70
2022-07-29T15:40:15.111Z,70
2022-07-29T15:45:15.120Z,71
2022-07-29T15:50:15.116Z,73
2022-07-29T15:55:15.107Z,73
2022-07-29T16:00:15.131Z,74
2022-07-29T16:05:15.105Z,74
2022-07-29T16:10:15.127Z,73
2022-07-29T16:15:15.160Z,72
2022-07-29T16:20:15.097Z,72
2022-07-29T16:25:15.119Z,71
2022-07-29T16:30:15.121Z,70
2022-07-29T16:35:15.122Z,70
2022-07-29T16:40:15.117Z,70
2022-07-29T16:45:15.135Z,70
2022-07-29T16:50:15.107Z,70
2022-07-29T16:55:15.114Z,70
2022-07-29T17:00:15.103Z,71
2022-07-29T17:05:15.113Z,74
2022-07-29T17:10:15.114Z,75
2022-07-29T17:15:15.110Z,75
2022-07-29T17:20:17.554Z,77
2022-07-29T17:25:20.421Z,77
2022-07-29T17:30:15.095Z,76
2022-07-29T17:35:15.105Z,76
2022-07-29T17:40:15.100Z,76
2022-07-29T17:45:15.112Z,75
2022-07-29T17:50:15.101Z,75
2022-07-29T17:55:15.117Z,75
2022-07-29T18:00:15.107Z,74
2022-07-29T18:05:15.124Z,73
2022-07-29T18:10:15.102Z,75
2022-07-29T18:15:15.110Z,76
2022-07-29T18:20:15.104Z,78
2022-07-29T18:25:15.131Z,78
2022-07-29T18:30:15.270Z,78
2022-07-29T18:35:15.111Z,79
2022-07-29T18:40:15.111Z,79
2022-07-29T18:45:19.678Z,80
2022-07-29T18:50:15.125Z,80
2022-07-29T18:55:15.137Z,81
2022-07-29T19:00:15.107Z,81
2022-07-29T19:05:15.115Z,81
2022-07-29T19:10:15.104Z,81
2022-07-29T19:15:20.168Z,81
2022-07-29T19:20:15.095Z,81
2022-07-29T19:25:15.121Z,81
2022-07-29T19:30:15.105Z,82
2022-07-29T19:35:15.104Z,82
2022-07-29T19:40:15.089Z,82
2022-07-29T19:45:15.098Z,82
2022-07-29T19:50:15.097Z,82
2022-07-29T19:55:15.098Z,81
2022-07-29T20:00:15.093Z,81
2022-07-29T20:05:15.104Z,82
2022-07-29T20:10:15.110Z,82
2022-07-29T20:15:16.471Z,82
2022-07-29T20:20:15.098Z,83
2022-07-29T20:25:15.104Z,83
2022-07-29T20:30:15.101Z,81
2022-07-29T20:35:15.099Z,82
2022-07-29T20:40:15.095Z,83
2022-07-29T20:45:15.107Z,83
2022-07-29T20:50:15.108Z,84
2022-07-29T20:55:15.112Z,84
2022-07-29T21:00:15.095Z,84
2022-07-29T21:05:15.109Z,84
2022-07-29T21:10:15.103Z,84
2022-07-29T21:15:15.106Z,84
2022-07-29T21:20:15.102Z,83
2022-07-29T21:25:15.109Z,84
2022-07-29T21:30:15.103Z,84
2022-07-29T21:35:27.362Z,84
2022-07-29T21:40:15.100Z,84
2022-07-29T21:45:15.111Z,85
2022-07-29T21:50:15.095Z,85
2022-07-29T21:55:15.118Z,85
2022-07-29T22:00:15.103Z,85
2022-07-29T22:05:15.115Z,85
2022-07-29T22:10:15.108Z,85
2022-07-29T22:15:15.116Z,85
2022-07-29T22:20:15.107Z,86
2022-07-29T22:25:15.121Z,86
2022-07-29T22:30:15.119Z,86
2022-07-29T22:35:15.116Z,86
2022-07-29T22:40:15.106Z,86
2022-07-29T22:45:15.117Z,86
2022-07-29T22:50:15.112Z,86
2022-07-29T22:55:15.117Z,86
2022-07-29T23:00:15.104Z,86
2022-07-29T23:05:15.106Z,86
2022-07-29T23:10:15.104Z,87
2022-07-29T23:15:15.105Z,87
2022-07-29T23:20:15.122Z,86
2022-07-29T23:25:15.104Z,87
2022-07-29T23:30:15.112Z,87
2022-07-29T23:35:15.116Z,87
2022-07-29T23:40:15.120Z,87
2022-07-29T23:45:15.115Z,87
2022-07-29T23:50:15.104Z,87
2022-07-29T23:55:35.972Z,87
